createdAt,value
2022-11-02T00:00:27.770Z,101032.00
2022-11-02T00:02:56.624Z,101025.78
2022-11-02T00:05:26.452Z,101022.28
2022-11-02T00:07:54.847Z,101014.25
2022-11-02T00:10:22.786Z,101020.31
2022-11-02T00:12:50.688Z,101020.31
2022-11-02T00:15:17.914Z,101014.13
2022-11-02T00:17:48.924Z,101007.03
2022-11-02T00:20:18.410Z,100996.31
2022-11-02T00:22:48.119Z,100997.13
2022-11-02T00:25:21.058Z,101002.41
2022-11-02T00:27:50.478Z,101007.69
2022-11-02T00:30:17.457Z,101003.25
2022-11-02T00:32:48.673Z,100998.91
2022-11-02T00:35:18.433Z,101006.69
2022-11-02T00:37:45.429Z,101004.94
2022-11-02T00:40:12.352Z,100998.69
2022-11-02T00:42:38.900Z,101001.28
2022-11-02T00:45:06.583Z,101005.69
2022-11-02T00:47:36.275Z,101008.34
2022-11-02T00:50:03.007Z,101012.72
2022-11-02T00:52:30.347Z,100999.47
2022-11-02T00:54:57.205Z,101004.78
2022-11-02T00:57:24.031Z,101006.50
2022-11-02T00:59:52.516Z,100996.72
2022-11-02T01:02:21.590Z,101000.22
2022-11-02T01:04:48.340Z,101007.25
2022-11-02T01:07:15.123Z,100999.28
2022-11-02T01:09:41.895Z,100999.19
2022-11-02T01:12:08.464Z,100990.31
2022-11-02T01:14:35.108Z,100993.88
2022-11-02T01:17:02.091Z,100992.97
2022-11-02T01:19:31.335Z,100992.09
2022-11-02T01:21:57.977Z,101000.91
2022-11-02T01:24:24.581Z,101001.72
2022-11-02T01:26:52.524Z,100999.06
2022-11-02T01:29:19.533Z,101004.31
2022-11-02T01:31:46.172Z,101000.78
2022-11-02T01:34:12.746Z,100997.22
2022-11-02T01:36:40.407Z,100994.53
2022-11-02T01:39:07.608Z,101000.69
2022-11-02T01:41:35.728Z,100996.28
2022-11-02T01:44:03.170Z,100999.75
2022-11-02T01:46:42.586Z,100995.38
2022-11-02T01:49:25.422Z,100991.81
2022-11-02T01:52:03.094Z,100991.81
2022-11-02T01:54:32.567Z,100985.56
2022-11-02T01:57:04.790Z,100987.31
2022-11-02T01:59:37.044Z,100988.13
2022-11-02T02:02:09.322Z,100981.00
2022-11-02T02:04:36.924Z,100979.22
2022-11-02T02:07:04.216Z,100980.97
2022-11-02T02:09:30.991Z,100985.34
2022-11-02T02:11:57.569Z,100987.09
2022-11-02T02:14:24.827Z,100987.97
2022-11-02T02:17:12.439Z,100982.59
2022-11-02T02:20:04.954Z,100991.38
2022-11-02T02:22:43.445Z,100983.34
2022-11-02T02:25:20.523Z,100991.25
2022-11-02T02:28:08.937Z,100985.91
2022-11-02T02:30:50.172Z,100984.13
2022-11-02T02:33:38.672Z,100979.63
2022-11-02T02:36:28.533Z,100981.34
2022-11-02T02:39:17.960Z,100974.31
2022-11-02T02:41:55.956Z,100972.53
2022-11-02T02:44:26.491Z,100975.13
2022-11-02T02:47:01.504Z,100974.22
2022-11-02T02:49:39.329Z,100975.13
2022-11-02T02:52:06.505Z,100974.25
2022-11-02T02:54:46.703Z,100970.66
2022-11-02T02:57:19.108Z,100970.63
2022-11-02T02:59:48.758Z,100980.31
2022-11-02T03:02:21.436Z,100969.69
2022-11-02T03:04:48.157Z,100974.06
2022-11-02T03:07:26.369Z,100967.88
2022-11-02T03:10:22.192Z,100970.53
2022-11-02T03:13:00.322Z,100974.91
2022-11-02T03:16:03.117Z,100977.56
2022-11-02T03:18:38.724Z,100979.28
2022-11-02T03:21:05.346Z,100973.09
2022-11-02T03:23:42.671Z,100972.22
2022-11-02T03:26:13.286Z,100981.94
2022-11-02T03:28:42.472Z,100978.41
2022-11-02T03:31:32.669Z,100975.72
2022-11-02T03:34:09.738Z,100979.28
2022-11-02T03:36:56.500Z,100970.41
2022-11-02T03:39:39.438Z,100976.63
2022-11-02T03:42:09.395Z,100974.91
2022-11-02T03:44:39.288Z,100980.22
2022-11-02T03:47:09.914Z,100972.25
2022-11-02T03:49:40.197Z,100973.19
2022-11-02T03:52:10.519Z,100975.88
2022-11-02T03:54:43.020Z,100984.66
2022-11-02T03:57:16.811Z,100979.34
2022-11-02T03:59:44.413Z,100983.72
2022-11-02T04:02:12.724Z,100979.28
2022-11-02T04:04:52.795Z,100976.63
2022-11-02T04:07:28.307Z,100975.75
2022-11-02T04:09:54.887Z,100977.53
2022-11-02T04:12:39.837Z,100980.09
2022-11-02T04:15:07.216Z,100973.06
2022-11-02T04:17:52.248Z,100975.72
2022-11-02T04:20:18.863Z,100986.44
2022-11-02T04:23:03.763Z,100988.19
2022-11-02T04:25:30.312Z,100987.34
2022-11-02T04:28:06.579Z,100987.34
2022-11-02T04:30:33.382Z,100990.00
2022-11-02T04:33:18.281Z,100984.78
2022-11-02T04:35:44.835Z,100984.84
2022-11-02T04:38:30.024Z,100987.59
2022-11-02T04:41:16.532Z,100980.53
2022-11-02T04:43:44.441Z,100977.97
2022-11-02T04:46:10.999Z,100982.53
2022-11-02T04:48:37.610Z,100984.41
2022-11-02T04:51:04.358Z,100987.03
2022-11-02T04:53:30.947Z,100985.25
2022-11-02T04:55:57.528Z,100988.66
2022-11-02T04:58:24.072Z,100995.69
2022-11-02T05:00:50.614Z,101003.63
2022-11-02T05:03:17.243Z,100988.59
2022-11-02T05:05:43.823Z,100993.00
2022-11-02T05:08:10.509Z,101001.88
2022-11-02T05:10:37.104Z,101000.03
2022-11-02T05:13:03.685Z,100998.31
2022-11-02T05:15:30.267Z,101005.34
2022-11-02T05:17:56.908Z,100992.16
2022-11-02T05:20:23.533Z,101000.97
2022-11-02T05:22:50.167Z,101000.03
2022-11-02T05:25:16.782Z,100996.53
2022-11-02T05:27:43.339Z,100991.16
2022-11-02T05:30:10.468Z,100992.09
2022-11-02T05:32:37.107Z,100992.16
2022-11-02T05:35:04.703Z,100991.31
2022-11-02T05:37:31.255Z,100986.06
2022-11-02T05:39:58.649Z,100982.59
2022-11-02T05:42:25.856Z,100994.03
2022-11-02T05:44:52.441Z,100994.94
2022-11-02T05:47:19.026Z,100991.50
2022-11-02T05:49:45.586Z,100996.81
2022-11-02T05:52:12.180Z,100998.59
2022-11-02T05:54:38.825Z,100994.19
2022-11-02T05:57:05.406Z,100994.19
2022-11-02T05:59:32.069Z,101003.94
2022-11-02T06:01:58.693Z,101002.22
2022-11-02T06:04:25.356Z,101003.94
2022-11-02T06:06:51.916Z,101003.09
2022-11-02T06:09:18.492Z,101000.41
2022-11-02T06:11:45.150Z,101005.72
2022-11-02T06:14:11.692Z,101001.34
2022-11-02T06:16:38.253Z,101008.38
2022-11-02T06:19:04.833Z,101006.59
2022-11-02T06:21:31.458Z,101001.34
2022-11-02T06:23:59.089Z,101007.53
2022-11-02T06:26:25.870Z,101010.19
2022-11-02T06:28:52.455Z,101011.06
2022-11-02T06:31:19.052Z,101005.84
2022-11-02T06:33:45.795Z,101006.75
2022-11-02T06:36:12.568Z,101001.50
2022-11-02T06:38:39.168Z,101009.44
2022-11-02T06:41:06.858Z,101009.41
2022-11-02T06:43:34.334Z,101007.66
2022-11-02T06:46:00.917Z,101008.56
2022-11-02T06:48:34.216Z,101007.72
2022-11-02T06:51:02.253Z,101008.59
2022-11-02T06:53:28.996Z,101010.38
2022-11-02T06:55:57.374Z,101009.44
2022-11-02T06:58:24.897Z,101014.75
2022-11-02T07:00:57.692Z,101016.53
2022-11-02T07:03:24.379Z,101013.97
2022-11-02T07:05:54.403Z,101017.47
2022-11-02T07:08:21.403Z,101018.34
2022-11-02T07:10:48.199Z,101017.41
2022-11-02T07:13:15.144Z,101011.25
2022-11-02T07:15:41.957Z,101010.44
2022-11-02T07:18:08.928Z,101010.47
2022-11-02T07:20:35.936Z,101008.75
2022-11-02T07:23:04.421Z,101005.16
2022-11-02T07:25:33.402Z,101002.59
2022-11-02T07:28:01.452Z,101002.53
2022-11-02T07:30:29.915Z,100997.22
2022-11-02T07:32:57.004Z,101004.25
2022-11-02T07:35:23.711Z,101009.44
2022-11-02T07:38:01.644Z,101005.00
2022-11-02T07:40:30.290Z,100997.94
2022-11-02T07:42:57.609Z,101001.44
2022-11-02T07:45:24.734Z,100997.00
2022-11-02T07:47:51.761Z,100997.00
2022-11-02T07:50:21.310Z,101003.19
2022-11-02T07:52:53.037Z,101001.38
2022-11-02T07:55:22.302Z,100996.16
2022-11-02T07:58:00.219Z,100999.66
2022-11-02T08:00:37.841Z,101002.31
2022-11-02T08:03:06.316Z,101009.41
2022-11-02T08:05:38.868Z,101008.47
2022-11-02T08:08:08.399Z,101014.66
2022-11-02T08:10:37.290Z,101010.22
2022-11-02T08:13:08.754Z,101006.66
2022-11-02T08:15:35.378Z,101009.25
2022-11-02T08:18:15.437Z,101003.84
2022-11-02T08:20:42.926Z,101005.56
2022-11-02T08:23:10.936Z,101005.47
2022-11-02T08:25:40.621Z,100998.22
2022-11-02T08:28:11.768Z,100998.13
2022-11-02T08:30:38.908Z,100988.28
2022-11-02T08:33:08.103Z,100992.66
2022-11-02T08:35:36.444Z,100981.16
2022-11-02T08:38:04.459Z,100988.13
2022-11-02T08:40:31.570Z,100992.44
2022-11-02T08:42:59.597Z,100979.19
2022-11-02T08:45:27.528Z,100980.78
2022-11-02T08:47:54.586Z,100988.66
2022-11-02T08:50:22.345Z,100988.53
2022-11-02T08:52:48.967Z,100987.66
2022-11-02T08:55:15.735Z,100984.06
2022-11-02T08:57:49.742Z,100980.44
2022-11-02T09:00:18.729Z,100968.91
2022-11-02T09:02:58.532Z,100988.25
2022-11-02T09:05:25.277Z,100981.97
2022-11-02T09:07:59.510Z,100981.06
2022-11-02T09:10:28.231Z,100982.81
2022-11-02T09:12:55.420Z,100982.72
2022-11-02T09:15:22.388Z,100982.69
2022-11-02T09:17:50.187Z,100982.59
2022-11-02T09:20:17.847Z,100978.88
2022-11-02T09:22:45.208Z,100977.91
2022-11-02T09:25:13.466Z,100980.50
2022-11-02T09:27:41.298Z,100976.00
2022-11-02T09:30:09.414Z,100972.34
2022-11-02T09:32:36.379Z,100975.88
2022-11-02T09:35:11.353Z,100973.97
2022-11-02T09:37:38.260Z,100973.84
2022-11-02T09:40:06.163Z,100971.25
2022-11-02T09:42:45.073Z,100966.88
2022-11-02T09:45:16.445Z,100959.81
2022-11-02T09:48:18.612Z,100968.59
2022-11-02T09:50:47.490Z,100972.00
2022-11-02T09:53:20.209Z,100961.38
2022-11-02T09:55:53.640Z,100969.31
2022-11-02T09:58:28.776Z,100963.09
2022-11-02T10:01:01.913Z,100970.91
2022-11-02T10:03:46.225Z,100970.91
2022-11-02T10:06:17.494Z,100961.06
2022-11-02T10:09:12.011Z,100962.88
2022-11-02T10:12:06.351Z,100954.84
2022-11-02T10:14:56.952Z,100954.78
2022-11-02T10:17:27.581Z,100949.38
2022-11-02T10:20:02.439Z,100943.09
2022-11-02T10:22:34.626Z,100941.28
2022-11-02T10:25:05.032Z,100942.06
2022-11-02T10:27:38.048Z,100954.38
2022-11-02T10:30:07.140Z,100953.41
2022-11-02T10:32:36.530Z,100952.44
2022-11-02T10:37:59.647Z,100953.97
2022-11-02T10:40:52.062Z,100953.91
2022-11-02T10:43:52.140Z,100942.31
2022-11-02T10:46:31.504Z,100952.78
2022-11-02T10:49:13.122Z,100955.41
2022-11-02T10:51:39.811Z,100957.00
2022-11-02T10:54:17.866Z,100942.78
2022-11-02T10:56:49.467Z,100947.19
2022-11-02T10:59:23.690Z,100949.75
2022-11-02T11:01:56.494Z,100940.94
2022-11-02T11:04:28.487Z,100947.94
2022-11-02T11:06:56.751Z,100943.47
2022-11-02T11:09:27.054Z,100941.59
2022-11-02T11:12:14.013Z,100936.22
2022-11-02T11:20:39.241Z,100926.44
2022-11-02T11:23:17.015Z,100916.66
2022-11-02T11:25:53.138Z,100924.59
2022-11-02T11:28:47.535Z,100915.69
2022-11-02T11:31:16.947Z,100910.38
2022-11-02T11:33:47.441Z,100914.75
2022-11-02T11:36:35.648Z,100907.63
2022-11-02T11:39:07.128Z,100906.75
2022-11-02T11:41:34.955Z,100912.03
2022-11-02T11:44:03.362Z,100914.56
2022-11-02T11:46:42.859Z,100913.69
2022-11-02T11:50:09.482Z,100911.91
2022-11-02T11:52:26.959Z,100902.19
2022-11-02T11:54:59.701Z,100901.19
2022-11-02T11:57:32.206Z,100905.66
2022-11-02T12:00:04.948Z,100907.34
2022-11-02T12:02:33.681Z,100908.97
2022-11-02T12:05:18.524Z,100900.09
2022-11-02T12:08:10.304Z,100900.00
2022-11-02T12:10:50.455Z,100902.63
2022-11-02T12:13:37.297Z,100893.75
2022-11-02T12:16:35.623Z,100890.19
2022-11-02T12:19:17.328Z,100888.38
2022-11-02T12:22:17.360Z,100891.91
2022-11-02T12:25:08.511Z,100882.94
2022-11-02T12:28:09.186Z,100879.41
2022-11-02T12:30:47.866Z,100881.13
2022-11-02T12:33:31.955Z,100875.81
2022-11-02T12:36:13.465Z,100866.03
2022-11-02T12:38:57.747Z,100874.75
2022-11-02T12:41:47.538Z,100864.91
2022-11-02T12:44:17.120Z,100871.09
2022-11-02T12:46:52.446Z,100858.50
2022-11-02T12:49:49.472Z,100860.09
2022-11-02T12:52:49.584Z,100868.03
2022-11-02T12:55:20.845Z,100855.59
2022-11-02T12:57:48.391Z,100856.59
2022-11-02T13:00:22.520Z,100862.75
2022-11-02T13:02:52.025Z,100868.22
2022-11-02T13:05:27.080Z,100870.97
2022-11-02T13:08:05.271Z,100862.13
2022-11-02T13:10:41.040Z,100866.63
2022-11-02T13:13:15.566Z,100862.38
2022-11-02T13:15:45.356Z,100858.00
2022-11-02T13:18:20.663Z,100861.56
2022-11-02T13:20:55.072Z,100863.56
2022-11-02T13:23:33.654Z,100861.81
2022-11-02T13:26:11.355Z,100862.84
2022-11-02T13:28:44.716Z,100858.50
2022-11-02T13:31:37.692Z,100855.88
2022-11-02T13:34:12.937Z,100860.34
2022-11-02T13:36:40.196Z,100859.44
2022-11-02T13:39:15.786Z,100849.72
2022-11-02T13:41:54.189Z,100854.19
2022-11-02T13:44:42.336Z,100844.47
2022-11-02T13:47:18.130Z,100850.78
2022-11-02T13:49:50.799Z,100842.88
2022-11-02T13:52:40.103Z,100843.88
2022-11-02T13:55:10.591Z,100845.66
2022-11-02T13:57:43.011Z,100850.13
2022-11-02T14:00:24.936Z,100849.22
2022-11-02T14:03:12.857Z,100843.06
2022-11-02T14:05:51.334Z,100848.44
2022-11-02T14:08:34.832Z,100844.97
2022-11-02T14:11:21.700Z,100839.75
2022-11-02T14:13:54.406Z,100840.69
2022-11-02T14:16:43.235Z,100833.81
2022-11-02T14:19:53.441Z,100837.47
2022-11-02T14:22:21.142Z,100836.81
2022-11-02T14:24:49.412Z,100840.50
2022-11-02T14:27:16.708Z,100847.69
2022-11-02T14:29:45.776Z,100836.44
2022-11-02T14:32:21.215Z,100833.09
2022-11-02T14:35:04.417Z,100835.91
2022-11-02T14:37:45.877Z,100844.94
2022-11-02T14:40:40.692Z,100842.53
2022-11-02T14:43:47.160Z,100844.44
2022-11-02T14:46:56.909Z,100836.72
2022-11-02T14:49:47.924Z,100846.66
2022-11-02T14:52:14.460Z,100839.75
2022-11-02T14:55:19.223Z,100839.00
2022-11-02T14:57:55.504Z,100838.31
2022-11-02T15:00:26.117Z,100839.28
2022-11-02T15:02:53.734Z,100850.91
2022-11-02T15:05:26.305Z,100845.66
2022-11-02T15:07:59.776Z,100841.31
2022-11-02T15:10:32.491Z,100844.78
2022-11-02T15:13:20.589Z,100845.66
2022-11-02T15:15:50.209Z,100843.97
2022-11-02T15:18:37.236Z,100842.25
2022-11-02T15:21:17.798Z,100844.97
2022-11-02T15:23:50.789Z,100854.72
2022-11-02T15:26:29.869Z,100846.75
2022-11-02T15:29:00.727Z,100855.63
2022-11-02T15:31:28.948Z,100856.50
2022-11-02T15:33:59.387Z,100852.97
2022-11-02T15:36:36.407Z,100853.91
2022-11-02T15:39:08.257Z,100860.09
2022-11-02T15:41:34.812Z,100863.59
2022-11-02T15:44:04.245Z,100858.28
2022-11-02T15:46:42.326Z,100855.72
2022-11-02T15:49:47.507Z,100850.31
2022-11-02T15:52:23.126Z,100856.56
2022-11-02T15:55:01.752Z,100853.84
2022-11-02T15:57:31.133Z,100860.03
2022-11-02T16:00:13.044Z,100857.50
2022-11-02T16:03:04.527Z,100858.28
2022-11-02T16:05:43.251Z,100847.66
2022-11-02T16:08:24.521Z,100851.25
2022-11-02T16:11:04.037Z,100848.66
2022-11-02T16:13:48.789Z,100848.72
2022-11-02T16:16:21.515Z,100857.63
2022-11-02T16:18:55.060Z,100854.97
2022-11-02T16:21:21.863Z,100857.63
2022-11-02T16:23:51.204Z,100852.31
2022-11-02T16:26:24.021Z,100854.09
2022-11-02T16:28:58.482Z,100857.63
2022-11-02T16:31:33.135Z,100855.88
2022-11-02T16:34:22.151Z,100856.81
2022-11-02T16:36:49.131Z,100863.03
2022-11-02T16:39:20.921Z,100859.56
2022-11-02T16:41:50.719Z,100872.84
2022-11-02T16:44:30.078Z,100863.19
2022-11-02T16:47:07.554Z,100863.19
2022-11-02T16:49:55.332Z,100859.75
2022-11-02T16:52:32.263Z,100858.91
2022-11-02T16:54:59.338Z,100869.53
2022-11-02T16:57:44.074Z,100863.44
2022-11-02T17:00:19.153Z,100872.28
2022-11-02T17:02:46.448Z,100869.66
2022-11-02T17:05:15.844Z,100876.78
2022-11-02T17:07:47.188Z,100874.06
2022-11-02T17:10:23.973Z,100888.31
2022-11-02T17:12:51.010Z,100884.84
2022-11-02T17:15:23.405Z,100896.28
2022-11-02T17:17:50.682Z,100898.94
2022-11-02T17:20:22.865Z,100895.31
2022-11-02T17:22:51.131Z,100900.56
2022-11-02T17:25:27.917Z,100899.59
2022-11-02T17:27:57.200Z,100898.72
2022-11-02T17:30:29.888Z,100901.38
2022-11-02T17:32:57.800Z,100903.03
2022-11-02T17:35:27.293Z,100909.16
2022-11-02T17:37:54.394Z,100906.50
2022-11-02T17:40:22.092Z,100908.22
2022-11-02T17:43:01.056Z,100906.41
2022-11-02T17:45:38.536Z,100902.78
2022-11-02T17:48:07.288Z,100900.97
2022-11-02T17:50:36.221Z,100904.41
2022-11-02T17:53:04.287Z,100906.19
2022-11-02T17:55:33.195Z,100908.84
2022-11-02T17:58:00.511Z,100910.56
2022-11-02T18:00:28.637Z,100900.78
2022-11-02T18:02:57.753Z,100891.88
2022-11-02T18:05:24.354Z,100882.16
2022-11-02T18:07:51.030Z,100892.78
2022-11-02T18:10:19.254Z,100897.09
2022-11-02T18:12:45.876Z,100900.59
2022-11-02T18:15:16.608Z,100884.75
2022-11-02T18:17:43.556Z,100887.31
2022-11-02T18:20:11.573Z,100872.31
2022-11-02T18:22:38.583Z,100880.38
2022-11-02T18:25:13.236Z,100867.97
2022-11-02T18:27:40.814Z,100884.81
2022-11-02T18:30:11.652Z,100879.53
2022-11-02T18:32:39.782Z,100866.25
2022-11-02T18:35:10.242Z,100882.19
2022-11-02T18:37:38.429Z,100877.81
2022-11-02T18:40:09.812Z,100882.19
2022-11-02T18:42:36.647Z,100884.06
2022-11-02T18:45:03.641Z,100891.22
2022-11-02T18:47:30.271Z,100894.81
2022-11-02T18:49:56.903Z,100899.25
2022-11-02T18:52:25.927Z,100887.81
2022-11-02T18:54:53.620Z,100891.44
2022-11-02T18:57:24.154Z,100899.41
2022-11-02T18:59:53.639Z,100891.44
2022-11-02T19:02:20.424Z,100894.16
2022-11-02T19:04:47.218Z,100886.22
2022-11-02T19:07:32.436Z,100884.50
2022-11-02T19:10:03.281Z,100888.09
2022-11-02T19:12:30.861Z,100888.22
2022-11-02T19:14:57.716Z,100892.69
2022-11-02T19:17:25.835Z,100890.91
2022-11-02T19:19:52.863Z,100900.66
2022-11-02T19:22:22.061Z,100901.53
2022-11-02T19:24:49.324Z,100896.22
2022-11-02T19:27:21.365Z,100900.66
2022-11-02T19:29:48.075Z,100897.22
2022-11-02T19:32:15.253Z,100895.47
2022-11-02T19:34:42.056Z,100900.78
2022-11-02T19:37:09.439Z,100898.22
2022-11-02T19:39:36.258Z,100905.41
2022-11-02T19:42:03.574Z,100897.44
2022-11-02T19:44:30.699Z,100902.75
2022-11-02T19:46:57.269Z,100894.88
2022-11-02T19:49:23.951Z,100897.53
2022-11-02T19:51:50.669Z,100907.31
2022-11-02T19:54:17.333Z,100900.13
2022-11-02T19:56:43.968Z,100900.13
2022-11-02T19:59:10.623Z,100899.34
2022-11-02T20:01:40.016Z,100895.81
2022-11-02T20:04:06.854Z,100895.81
2022-11-02T20:06:40.558Z,100887.97
2022-11-02T20:09:13.328Z,100879.19
2022-11-02T20:11:44.471Z,100885.41
2022-11-02T20:14:12.817Z,100887.16
2022-11-02T20:16:39.675Z,100888.97
2022-11-02T20:19:06.694Z,100882.81
2022-11-02T20:21:38.218Z,100891.69
2022-11-02T20:24:09.777Z,100889.22
2022-11-02T20:26:37.867Z,100882.16
2022-11-02T20:29:06.389Z,100889.31
2022-11-02T20:31:39.176Z,100884.88
2022-11-02T20:34:08.296Z,100883.09
2022-11-02T20:36:35.215Z,100886.69
2022-11-02T20:39:04.778Z,100880.53
2022-11-02T20:41:31.914Z,100890.28
2022-11-02T20:43:58.631Z,100890.38
2022-11-02T20:46:45.294Z,100886.13
2022-11-02T20:49:22.105Z,100881.78
2022-11-02T20:52:01.120Z,100889.84
2022-11-02T20:54:29.874Z,100889.00
2022-11-02T20:56:56.987Z,100899.59
2022-11-02T20:59:23.644Z,100902.44
2022-11-02T21:01:50.531Z,100899.81
2022-11-02T21:04:20.873Z,100904.31
2022-11-02T21:06:49.146Z,100895.59
2022-11-02T21:09:15.986Z,100899.16
2022-11-02T21:12:01.394Z,100904.59
2022-11-02T21:14:28.066Z,100903.84
2022-11-02T21:16:55.462Z,100905.75
2022-11-02T21:19:22.175Z,100907.66
2022-11-02T21:21:48.729Z,100906.78
2022-11-02T21:24:15.332Z,100915.66
2022-11-02T21:26:42.100Z,100921.84
2022-11-02T21:29:09.511Z,100918.25
2022-11-02T21:31:36.335Z,100920.91
2022-11-02T21:34:02.959Z,100921.84
2022-11-02T21:36:30.088Z,100935.09
2022-11-02T21:38:57.068Z,100923.66
2022-11-02T21:41:29.003Z,100938.75
2022-11-02T21:43:56.400Z,100923.06
2022-11-02T21:46:25.822Z,100925.81
2022-11-02T21:48:52.954Z,100924.25
2022-11-02T21:51:22.130Z,100925.22
2022-11-02T21:53:50.219Z,100923.50
2022-11-02T21:56:19.740Z,100927.13
2022-11-02T21:58:48.820Z,100932.50
2022-11-02T22:01:37.319Z,100936.09
2022-11-02T22:04:04.805Z,100937.09
2022-11-02T22:06:32.154Z,100940.63
2022-11-02T22:08:59.528Z,100937.19
2022-11-02T22:11:29.650Z,100935.41
2022-11-02T22:13:58.736Z,100932.88
2022-11-02T22:16:34.741Z,100938.28
2022-11-02T22:19:05.848Z,100933.97
2022-11-02T22:21:34.772Z,100927.03
2022-11-02T22:24:02.583Z,100929.78
2022-11-02T22:26:30.765Z,100935.94
2022-11-02T22:28:58.120Z,100945.69
2022-11-02T22:31:36.262Z,100945.69
2022-11-02T22:34:05.121Z,100946.53
2022-11-02T22:36:34.584Z,100961.56
2022-11-02T22:39:03.149Z,100951.81
2022-11-02T22:41:38.412Z,100952.75
2022-11-02T22:44:07.655Z,100958.91
2022-11-02T22:46:36.581Z,100964.19
2022-11-02T22:49:04.737Z,100964.19
2022-11-02T22:51:35.067Z,100972.25
2022-11-02T22:54:04.150Z,100971.50
2022-11-02T22:56:31.519Z,100968.94
2022-11-02T22:58:59.171Z,100974.28
2022-11-02T23:01:28.123Z,100980.50
2022-11-02T23:03:55.621Z,100976.97
2022-11-02T23:06:26.176Z,100979.75
2022-11-02T23:08:57.055Z,100983.28
2022-11-02T23:11:27.075Z,100978.91
2022-11-02T23:14:01.884Z,100987.78
2022-11-02T23:16:37.277Z,100987.00
2022-11-02T23:19:28.547Z,100990.63
2022-11-02T23:22:30.814Z,100987.16
2022-11-02T23:25:11.850Z,100993.41
2022-11-02T23:28:08.335Z,100989.97
2022-11-02T23:30:55.932Z,100997.94
2022-11-02T23:33:32.325Z,100988.28
2022-11-02T23:36:15.598Z,100996.38
2022-11-02T23:39:03.043Z,100996.53
2022-11-02T23:41:32.085Z,100996.78
2022-11-02T23:44:12.004Z,101000.44
2022-11-02T23:46:46.950Z,100997.97
2022-11-02T23:49:16.383Z,100999.84
2022-11-02T23:52:02.039Z,101000.00
2022-11-02T23:54:47.013Z,101001.00
2022-11-02T23:57:13.855Z,100998.53
2022-11-02T23:59:40.662Z,100998.66
